• Join FlightAware (Why Join?)
  • Login
  • US Flag 
12:59AM EDT


 

Airport Tracker/Info


-or-


 

Live Flight TrackerFlight Track Log ✈ ZS-SXA ✈ 19-Apr-2013 ✈ YPPH / PER - FAOR / JNB

Flight Track Log - Related Links

Times and Time Zones

All times are in EDT time to prevent confusion due to time zone crossing. See the ZS-SXA flight status page for this flight to view local times or setup timezone preferences in your user account.

Time Position Orientation Groundspeed Altitude Reporting Facility
EDT Latitude Longitude Course Direction KTS MPH feet Rate Location/Type
11:50AM -31.9400 115.9730 333° Northwest 2 2  Level FlightAware
11:51AM -31.9390 115.9730 360° North 2 2  Level FlightAware
11:53AM -32.0230 115.7221 248° West  Level Estimated
11:54AM -32.0655 115.5943 249° West  Level Estimated
11:54AM -31.9390 115.9740 249° West 2 2  Level FlightAware
11:55AM -31.9380 115.9730 320° Northwest 6 7  Level FlightAware
11:55AM -31.9370 115.9720 320° Northwest 8 9  Level FlightAware
11:56AM -31.9350 115.9710 337° Northwest 17 20  Level FlightAware
11:56AM -31.9340 115.9710 360° North 9 10  Level FlightAware
11:56AM -31.9330 115.9710 360° North 3 3  Level FlightAware
11:57AM -31.9320 115.9710 360° North 7 8 60 Level FlightAware
11:57AM -31.9310 115.9710 360° North 16 18 60 Level FlightAware
11:57AM -31.9300 115.9720 40° Northeast 5 6 60 Level FlightAware
11:58AM -31.9290 115.9710 320° Northwest 4 5 60 Level FlightAware
11:58AM -31.9290 115.9700 270° West 10 12 60 Level FlightAware
11:59AM -31.9290 115.9680 270° West 4 5 60 Level FlightAware
12:00PM -31.9300 115.9680 180° South 16 18 120 Level FlightAware
12:01PM -31.9390 115.9650 196° South 103 119 240 Level FlightAware
12:01PM -31.9841 115.9532 11° North 4,800 420 Climbing Aus ATC (Calculated)
12:01PM -31.9640 115.9580 196° South 164 189 300 -10,020 Descending FlightAware
12:02PM -31.9770 115.9540 195° South 152 175 800 2,160 Climbing FlightAware
12:02PM -31.9952 115.9493 195° South 156 180 1,600 1,440 Climbing Aus ATC (RADAR)
12:02PM -31.9930 115.9500 195° South 153 176 1,400 840 Descending FlightAware
12:03PM -32.0240 115.9370 200° South 161 185 2,300 960 Climbing FlightAware
12:03PM -32.0280 115.9171 200° South 171 197 2,400 360 Climbing Aus ATC (RADAR)
12:03PM -32.0280 115.9230 200° South 187 215 2,400  Level FlightAware
12:03PM -32.0260 115.9100 280° West 200 230 2,400 600 Level FlightAware
12:04PM -32.0200 115.8780 282° West 221 254 2,800 1,080 Climbing FlightAware
12:04PM -32.0158 115.8464 282° West 226 260 3,300 1,200 Climbing Aus ATC (RADAR)
12:04PM -32.0160 115.8500 282° West 242 278 3,200 1,200 Descending FlightAware
12:05PM -32.0100 115.8040 279° West 263 303 4,000 1,920 Climbing FlightAware
12:05PM -32.0041 115.7539 279° West 264 304 5,300 1,980 Climbing Aus ATC (RADAR)
12:05PM -32.0050 115.7630 279° West 268 308 5,000 1,980 Descending FlightAware
12:06PM -32.0000 115.7200 278° West 262 302 6,300 2,640 Climbing FlightAware
12:06PM -31.9970 115.6950 278° West 261 300 7,000 1,980 Climbing FlightAware
12:06PM -32.0015 115.6691 278° West 258 297 7,300 1,440 Climbing Aus ATC (RADAR)
12:06PM -32.0070 115.6590 278° West 273 314 7,600 2,160 Climbing FlightAware
12:06PM -32.0150 115.6370 247° West 275 316 8,200 1,800 Climbing FlightAware
12:07PM -32.0270 115.6020 248° West 282 325 8,800 1,800 Climbing FlightAware
12:07PM -32.0410 115.5590 249° West 281 323 9,900 1,500 Climbing FlightAware
12:08PM -32.0610 115.5010 248° West 304 350 10,600 840 Climbing FlightAware
12:09PM -32.0860 115.4250 249° West 341 392 11,100 900 Climbing FlightAware
12:09PM -32.0982 115.3890 249° West 336 387 11,600 1,500 Climbing Aus ATC (RADAR)
12:09PM -32.1090 115.3550 249° West 354 407 12,100 1,980 Climbing FlightAware
12:10PM -32.1336 115.2813 249° West 348 400 13,600 1,980 Climbing Aus ATC (RADAR)
12:10PM -32.1360 115.2750 249° West 350 403 13,600 1,380 Level FlightAware
12:11PM -32.1600 115.2030 248° West 358 412 14,700 1,620 Climbing FlightAware
12:12PM -32.1830 115.1300 250° West 364 419 15,800 1,740 Climbing FlightAware
12:12PM -32.2092 115.0521 250° West 363 418 17,000 1,560 Climbing Aus ATC (RADAR)
12:12PM -32.2120 115.0440 250° West 372 428 17,000 1,560 Level FlightAware
12:13PM -32.2360 114.9700 249° West 375 432 18,200 1,620 Climbing FlightAware
12:14PM -32.2610 114.8940 249° West 381 438 19,200 1,500 Climbing FlightAware
12:14PM -32.2849 114.8214 249° West 378 435 20,100 1,320 Climbing Aus ATC (RADAR)
12:14PM -32.2910 114.8020 249° West 389 448 20,200 1,260 Climbing FlightAware
12:15PM -32.3160 114.7260 249° West 394 453 21,200 1,500 Climbing FlightAware
12:16PM -32.3450 114.6340 250° West 395 455 22,400 1,440 Climbing FlightAware
12:16PM -32.3710 114.5540 249° West 396 456 23,300 1,260 Climbing FlightAware
12:17PM -32.4020 114.4590 249° West 401 461 24,200 1,260 Climbing FlightAware
12:18PM -32.4255 114.3874 249° West 393 452 25,000 1,200 Climbing Aus ATC (RADAR)
12:18PM -32.4280 114.3770 249° West 400 460 25,000 1,140 Level FlightAware
12:19PM -32.4540 114.2960 249° West 400 460 25,900 1,200 Climbing FlightAware
12:19PM -32.4777 114.2232 249° West 393 452 26,500 780 Climbing Aus ATC (RADAR)
12:19PM -32.4840 114.2040 249° West 406 467 26,500 1,020 Level FlightAware
12:20PM -32.5100 114.1210 250° West 402 463 27,400 1,320 Climbing FlightAware
12:21PM -32.5360 114.0390 249° West 397 457 28,300 1,560 Climbing FlightAware
12:21PM -32.5594 113.9675 249° West 385 443 29,300 1,440 Climbing Aus ATC (RADAR)
12:21PM -32.5650 113.9490 249° West 390 449 29,400 780 Climbing FlightAware
12:22PM -32.5900 113.8690 250° West 390 449 30,000 420 Climbing FlightAware
12:23PM -32.6190 113.7760 250° West 402 463 30,000 60 Level FlightAware
12:23PM -32.6384 113.7142 250° West 387 445 30,100  Climbing Aus ATC (RADAR)
12:23PM -32.6460 113.6930 250° West 400 460 30,000 -120 Descending FlightAware
12:24PM -32.6740 113.6030 250° West 399 459 30,000  Level FlightAware
12:25PM -32.7000 113.5190 250° West 400 460 30,000 60 Level FlightAware
12:25PM -32.7205 113.4579 250° West 389 448 30,100  Climbing Aus ATC (RADAR)
12:26PM -32.7250 113.4370 250° West 401 461 30,000  Descending FlightAware
12:26PM -32.7540 113.3470 249° West 403 464 30,100 120 Climbing FlightAware
12:27PM -32.7810 113.2600 250° West 401 461 30,200 240 Climbing FlightAware
12:27PM -32.7994 113.1998 250° West 387 445 30,400 120 Climbing Aus ATC (RADAR)
12:28PM -32.8040 113.1850 250° West 397 457 30,300 60 Descending FlightAware
12:28PM -32.8300 113.0990 250° West 395 455 30,500 120 Climbing FlightAware
12:29PM -32.8550 113.0200 249° West 396 456 30,500 60 Level FlightAware
12:29PM -32.8774 112.9431 249° West 384 442 30,600  Climbing Aus ATC (RADAR)
12:30PM -32.8840 112.9230 249° West 396 456 30,500 -120 Descending FlightAware
12:30PM -32.9110 112.8360 250° West 395 455 30,500  Level FlightAware
12:31PM -32.9420 112.7350 250° West 395 455 30,500 60 Level FlightAware
12:32PM -32.9734 112.6355 250° West 383 441 30,600  Climbing Aus ATC (RADAR)
12:32PM -32.9750 112.6250 250° West 397 457 30,500 -180 Descending FlightAware
12:33PM -33.0010 112.5400 250° West 396 456 30,500  Level FlightAware
12:34PM -33.0250 112.4590 251° West 395 455 30,500  Level FlightAware
12:34PM -33.0530 112.3680 250° West 395 455 30,500  Level FlightAware
12:35PM -33.0770 112.2860 251° West 395 455 30,500  Level FlightAware
12:36PM -33.1040 112.1960 250° West 392 451 30,500 60 Level FlightAware
12:36PM -33.1221 112.1351 250° West 377 434 30,600  Climbing Aus ATC (RADAR)
12:36PM -33.1290 112.1150 250° West 392 451 30,500 -120 Descending FlightAware
12:37PM -33.1530 112.0330 251° West 393 452 30,500  Level FlightAware
12:37PM -33.1753 111.9623 251° West 378 435 30,500  Level Aus ATC (RADAR)
12:38PM -33.1800 111.9400 251° West 394 453 30,500  Level FlightAware
12:38PM -33.1989 111.8798 251° West 379 436 30,500  Level Aus ATC (RADAR)
12:38PM -33.2050 111.8590 251° West 395 455 30,500  Level FlightAware
12:39PM -33.2320 111.7660 251° West 395 455 30,500  Level FlightAware
12:40PM -33.2540 111.6900 251° West 394 453 30,500  Level FlightAware
12:41PM -33.2800 111.6040 251° West 394 453 30,500  Level FlightAware
12:41PM -33.2851 111.5824 251° West 377 434 30,500  Level Aus ATC (RADAR)
12:41PM -33.3020 111.5350 249° West 394 453 30,500  Level FlightAware
12:42PM -33.3230 111.4650 250° West 394 453 30,500  Level FlightAware
12:42PM -33.3496 111.3805 250° West 378 435 30,500  Level Aus ATC (RADAR)
12:43PM -33.3440 111.3950 250° West 394 453 30,500  Level FlightAware
12:43PM -33.3700 111.3080 250° West 394 453 30,500  Level FlightAware
12:44PM -33.3920 111.2380 249° West 394 453 30,500  Level FlightAware
12:45PM -33.4130 111.1690 250° West 394 453 30,500  Level FlightAware
12:45PM -33.4340 111.0990 250° West 394 453 30,500  Level FlightAware
12:46PM -33.4885 110.8972 73° East 30,000  Descending Aus ATC (Calculated)
12:46PM -33.4550 111.0290 250° West 394 453 30,500 480 Climbing FlightAware
12:47PM -33.4760 110.9590 250° West 394 453 30,500  Level FlightAware
12:47PM -33.4980 110.8890 249° West 394 453 30,500  Level FlightAware
12:48PM -33.5240 110.8020 250° West 394 453 30,500  Level FlightAware
12:49PM -33.5450 110.7320 250° West 394 453 30,500  Level FlightAware
12:50PM -33.5660 110.6620 250° West 394 453 30,500  Level FlightAware
12:51PM -33.6927 110.1717 252° West 30,000  Descending Aus ATC (Calculated)
12:51PM -33.6927 110.1717 252° West 30,000  Level Aus ATC (Calculated)
12:53PM -33.7300 110.0373 252° West  Level Estimated
12:54PM -33.7658 109.9071 252° West  Level Estimated
12:55PM -33.8016 109.7769 252° West  Level Estimated
12:56PM -33.8372 109.6465 252° West  Level Estimated
12:57PM -33.8727 109.5160 252° West  Level Estimated
12:58PM -33.9080 109.3854 252° West  Level Estimated
12:59PM -33.9432 109.2547 252° West  Level Estimated
01:00PM -33.9782 109.1239 252° West  Level Estimated
01:01PM -34.0132 108.9930 252° West  Level Estimated
01:02PM -34.0479 108.8620 252° West  Level Estimated
01:03PM -34.0826 108.7309 252° West  Level Estimated
01:04PM -34.1171 108.5997 252° West  Level Estimated
01:05PM -34.1514 108.4683 252° West  Level Estimated
01:06PM -34.1856 108.3369 252° West  Level Estimated
01:07PM -34.2197 108.2053 253° West  Level Estimated
01:08PM -34.2537 108.0737 253° West  Level Estimated
01:09PM -34.2874 107.9419 253° West  Level Estimated
01:10PM -34.3211 107.8100 253° West  Level Estimated
01:11PM -34.3546 107.6780 253° West  Level Estimated
01:12PM -34.3880 107.5460 253° West  Level Estimated
01:13PM -34.4212 107.4138 253° West  Level Estimated
01:14PM -34.4543 107.2815 253° West  Level Estimated
01:15PM -34.4873 107.1491 253° West  Level Estimated
01:16PM -34.5201 107.0166 253° West  Level Estimated
01:16PM -34.5153 107.0392 254° West 30,000  Level Aus ATC (Calculated)
01:18PM -34.5773 106.7872 253° West  Level Estimated
01:19PM -34.6097 106.6544 253° West  Level Estimated
01:20PM -34.6420 106.5215 254° West  Level Estimated
01:21PM -34.6741 106.3885 254° West  Level Estimated
01:22PM -34.7061 106.2554 254° West  Level Estimated
01:23PM -34.7379 106.1222 254° West  Level Estimated
01:24PM -34.7696 105.9889 254° West  Level Estimated
01:25PM -34.8012 105.8555 254° West  Level Estimated
01:26PM -34.8326 105.7220 254° West  Level Estimated
01:27PM -34.8638 105.5884 254° West  Level Estimated
01:27PM -34.8820 105.5120 255° West 30,000  Level Aus ATC (Calculated)
01:28PM -34.8950 105.4547 254° West  Level Estimated
01:29PM -34.9156 105.3671 254° West  Level Estimated
01:30PM -34.9465 105.2332 254° West  Level Estimated
01:31PM -34.9772 105.0992 254° West  Level Estimated
01:32PM -35.0078 104.9652 254° West  Level Estimated
01:32PM -35.0164 104.9167 255° West 34,000  Level Aus ATC (Calculated)
01:33PM -35.0382 104.8310 254° West  Level Estimated
01:34PM -35.0664 104.6952 255° West  Level Estimated
01:35PM -35.0966 104.5608 255° West  Level Estimated
01:36PM -35.1265 104.4263 255° West  Level Estimated
01:37PM -35.1564 104.2918 255° West  Level Estimated
01:38PM -35.1861 104.1571 255° West  Level Estimated
01:39PM -35.2156 104.0223 255° West  Level Estimated
01:40PM -35.2450 103.8875 255° West  Level Estimated
01:41PM -35.2742 103.7525 255° West  Level Estimated
01:42PM -35.3033 103.6174 255° West  Level Estimated
01:43PM -35.3322 103.4823 255° West  Level Estimated
01:44PM -35.3610 103.3470 255° West  Level Estimated
01:45PM -35.3896 103.2117 255° West  Level Estimated
01:46PM -35.4181 103.0762 255° West  Level Estimated
01:46PM -35.4400 102.9338 257° West 34,000  Level Aus ATC (Calculated)
01:46PM -35.4400 102.9338 257° West 34,000  Level Aus ATC (Calculated)
01:47PM -35.4463 102.9413 256° West  Level Estimated
01:48PM -35.4934 102.6760 256° West  Level Estimated
01:49PM -35.5213 102.5402 256° West  Level Estimated
01:50PM -35.5491 102.4043 256° West  Level Estimated
01:51PM -35.5766 102.2683 256° West  Level Estimated
01:52PM -35.6041 102.1322 256° West  Level Estimated
01:53PM -35.6314 101.9960 256° West  Level Estimated
01:54PM -35.6585 101.8597 256° West  Level Estimated
01:55PM -35.6855 101.7234 256° West  Level Estimated
01:56PM -35.7123 101.5869 256° West  Level Estimated
01:57PM -35.7389 101.4504 256° West  Level Estimated
01:58PM -35.7654 101.3137 257° West  Level Estimated
01:59PM -35.7918 101.1770 257° West  Level Estimated
02:00PM -35.8180 101.0402 257° West  Level Estimated
02:01PM -35.8440 100.9033 257° West  Level Estimated
02:02PM -35.8699 100.7663 257° West  Level Estimated
02:03PM -35.8956 100.6292 257° West  Level Estimated
02:04PM -35.9212 100.4920 256° West  Level Estimated
02:05PM -35.9466 100.3548 257° West  Level Estimated
02:06PM -35.9719 100.2174 257° West  Level Estimated
02:06PM -35.9860 99.9210 258° West 34,000  Level Aus ATC (Calculated)
02:07PM -35.9970 100.0800 257° West  Level Estimated
02:08PM -36.0244 99.7077 257° West  Level Estimated
02:09PM -36.0489 99.5700 258° West  Level Estimated
02:10PM -36.0733 99.4323 258° West  Level Estimated
02:11PM -36.0976 99.2944 258° West  Level Estimated
02:12PM -36.1217 99.1565 258° West  Level Estimated
02:13PM -36.1456 99.0184 258° West  Level Estimated
02:14PM -36.1694 98.8803 258° West  Level Estimated
02:15PM -36.1930 98.7421 258° West  Level Estimated
02:15PM -35.6796 98.2674 259° West 34,000  Level Aus ATC (Calculated)
02:16PM -36.2165 98.6039 258° West  Level Estimated
02:17PM -35.7071 98.1072 258° West  Level Estimated
02:18PM -35.7305 97.9697 258° West  Level Estimated
02:19PM -35.7538 97.8322 258° West  Level Estimated
02:20PM -35.7768 97.6946 258° West  Level Estimated
02:21PM -35.7998 97.5569 258° West  Level Estimated
02:22PM -35.8225 97.4192 258° West  Level Estimated
02:23PM -35.8451 97.2813 259° West  Level Estimated
02:24PM -35.8676 97.1434 259° West  Level Estimated
02:25PM -35.8899 97.0054 259° West  Level Estimated
02:26PM -35.9120 96.8673 259° West  Level Estimated
02:27PM -35.9340 96.7292 259° West  Level Estimated
02:28PM -35.9558 96.5910 259° West  Level Estimated
02:29PM -35.9775 96.4527 259° West  Level Estimated
02:30PM -35.9990 96.3143 259° West  Level Estimated
02:31PM -36.0204 96.1758 259° West  Level Estimated
02:32PM -36.0416 96.0373 259° West  Level Estimated
02:33PM -36.0626 95.8987 259° West  Level Estimated
02:33PM -35.0685 95.3088 260° West 34,000  Level Aus ATC (Calculated)
02:35PM -35.1089 95.0511 259° West  Level Estimated
02:35PM -34.9860 94.9210 260° West 34,000  Level Aus ATC (Calculated)
02:37PM -35.0213 94.6930 259° West  Level Estimated
02:38PM -35.0424 94.5562 259° West  Level Estimated
02:39PM -35.0632 94.4193 259° West  Level Estimated
02:40PM -35.0839 94.2823 259° West  Level Estimated
02:41PM -35.1045 94.1452 260° West  Level Estimated
02:42PM -35.1249 94.0081 260° West  Level Estimated
02:43PM -35.1451 93.8709 260° West  Level Estimated
02:44PM -35.1652 93.7336 260° West  Level Estimated
02:45PM -35.1852 93.5963 260° West  Level Estimated
02:45PM -34.6490 93.1111 260° West 34,000  Level Aus ATC (Calculated)
02:45PM -34.6490 93.1111 260° West 34,000  Level Aus ATC (Calculated)
02:47PM -34.6750 92.9337 260° West  Level Estimated
02:48PM -34.6948 92.7972 260° West  Level Estimated
02:49PM -34.7145 92.6606 260° West  Level Estimated
02:50PM -34.7340 92.5239 260° West  Level Estimated
02:51PM -34.7534 92.3872 260° West  Level Estimated
02:52PM -34.7726 92.2504 260° West  Level Estimated
02:53PM -34.7917 92.1135 260° West  Level Estimated
02:54PM -34.8106 91.9766 260° West  Level Estimated
02:55PM -34.8294 91.8396 260° West  Level Estimated
02:56PM -34.8480 91.7026 261° West  Level Estimated
02:57PM -34.8665 91.5654 261° West  Level Estimated
02:58PM -34.8848 91.4283 261° West  Level Estimated
02:59PM -34.9029 91.2910 261° West  Level Estimated
03:00PM -34.9209 91.1537 261° West  Level Estimated
03:01PM -34.9388 91.0164 261° West  Level Estimated
03:02PM -34.9565 90.8790 261° West  Level Estimated
03:03PM -34.9740 90.7415 260° West  Level Estimated
03:04PM -34.9914 90.6039 261° West  Level Estimated
03:04PM -33.9718 89.8421 261° West 34,000  Level Aus ATC (Calculated)
03:04PM -33.9718 89.8421 261° West 34,000  Level Aus ATC (Calculated)
03:06PM -34.0067 89.5773 261° West  Level Estimated
03:07PM -34.0244 89.4414 261° West  Level Estimated
03:08PM -34.0420 89.3055 261° West  Level Estimated
03:09PM -34.0594 89.1695 261° West  Level Estimated
03:10PM -34.0766 89.0334 261° West  Level Estimated
03:11PM -34.0938 88.8973 261° West  Level Estimated
03:12PM -34.1107 88.7611 261° West  Level Estimated
03:13PM -34.1275 88.6249 261° West  Level Estimated
03:14PM -34.1441 88.4887 262° West  Level Estimated
03:15PM -34.1606 88.3523 262° West  Level Estimated
03:15PM -33.5873 87.7984 262° West 34,000  Level Aus ATC (Calculated)
03:17PM -33.6112 87.6044 262° West  Level Estimated
03:18PM -33.6277 87.4689 262° West  Level Estimated
03:19PM -33.6441 87.3334 262° West  Level Estimated
03:20PM -33.6603 87.1978 262° West  Level Estimated
03:21PM -33.6764 87.0622 262° West  Level Estimated
03:22PM -33.6923 86.9265 262° West  Level Estimated
03:23PM -33.7081 86.7907 262° West  Level Estimated
03:24PM -33.7238 86.6550 262° West  Level Estimated
03:25PM -33.7392 86.5191 262° West  Level Estimated
03:26PM -33.7546 86.3833 262° West  Level Estimated
03:27PM -33.7697 86.2474 262° West  Level Estimated
03:28PM -33.7848 86.1114 262° West  Level Estimated
03:29PM -33.7997 85.9754 262° West  Level Estimated
03:30PM -33.8144 85.8393 263° West  Level Estimated
03:31PM -33.8290 85.7032 263° West  Level Estimated
03:32PM -33.8434 85.5670 263° West  Level Estimated
03:33PM -33.8577 85.4308 263° West  Level Estimated
03:33PM -33.0045 84.7657 262° West 34,000  Level Aus ATC (Calculated)
03:34PM -33.8719 85.2946 263° West  Level Estimated
03:35PM -33.0291 84.5433 262° West  Level Estimated
03:35PM -33.0109 84.3752 263° West 34,000  Level Aus ATC (Calculated)
03:36PM -33.0438 84.4084 263° West  Level Estimated
03:37PM -33.0292 84.2066 263° West  Level Estimated
03:38PM -33.0436 84.0717 263° West  Level Estimated
03:38PM -33.0170 83.9064 263° West 34,000  Level Aus ATC (Calculated)
03:39PM -33.0187 83.7502 263° West 34,000  Level Aus ATC (Calculated)
03:40PM -33.0202 83.5939 263° West 34,000  Level Aus ATC (Calculated)
03:41PM -33.0220 83.3595 263° West 34,000  Level Aus ATC (Calculated)
03:43PM -33.0454 83.1277 263° West  Level Estimated
03:44PM -33.0588 82.9927 263° West  Level Estimated
03:45PM -33.0721 82.8575 263° West  Level Estimated
03:45PM -33.0248 82.6563 263° West 34,000  Level Aus ATC (Calculated)
03:47PM -33.0452 82.4446 263° West  Level Estimated
03:48PM -33.0580 82.3094 264° West  Level Estimated
03:49PM -33.0707 82.1742 264° West  Level Estimated
03:50PM -33.0833 82.0390 264° West  Level Estimated
03:51PM -33.0957 81.9037 264° West  Level Estimated
03:52PM -33.1079 81.7684 264° West  Level Estimated
03:53PM -33.1200 81.6330 264° West  Level Estimated
03:54PM -33.1320 81.4977 264° West  Level Estimated
03:55PM -33.1438 81.3622 264° West  Level Estimated
03:56PM -33.1554 81.2268 264° West  Level Estimated
03:57PM -33.1669 81.0912 264° West  Level Estimated
03:58PM -33.1783 80.9557 264° West  Level Estimated
03:59PM -33.1895 80.8201 264° West  Level Estimated
04:00PM -33.2006 80.6845 264° West  Level Estimated
04:01PM -33.2115 80.5489 264° West  Level Estimated
04:02PM -33.2223 80.4132 265° West  Level Estimated
04:02PM -33.0058 79.6876 265° West 36,000  Level Aus ATC (Calculated)
04:03PM -33.2329 80.2775 265° West  Level Estimated
04:04PM -33.0166 79.5477 265° West  Level Estimated
04:05PM -33.0268 79.4122 265° West  Level Estimated
04:06PM -33.0369 79.2768 265° West  Level Estimated
04:07PM -33.0468 79.1413 265° West  Level Estimated
04:08PM -33.0566 79.0058 265° West  Level Estimated
04:09PM -33.0663 78.8702 265° West  Level Estimated
04:10PM -33.0758 78.7346 265° West  Level Estimated
04:11PM -33.0851 78.5990 265° West  Level Estimated
04:12PM -33.0943 78.4634 265° West  Level Estimated
04:13PM -33.1034 78.3277 265° West  Level Estimated
04:14PM -33.1123 78.1920 265° West  Level Estimated
04:15PM -33.1211 78.0563 266° West  Level Estimated
04:15PM -33.0248 77.6563 266° West 36,000  Level Aus ATC (Calculated)
04:16PM -33.1297 77.9205 266° West  Level Estimated
04:17PM -33.0359 77.4777 266° West  Level Estimated
04:18PM -33.0442 77.3421 266° West  Level Estimated
04:18PM -33.0245 77.1874 266° West 36,000  Level Aus ATC (Calculated)
04:19PM -33.0523 77.2064 266° West  Level Estimated
04:20PM -33.0387 76.9455 266° West  Level Estimated
04:21PM -33.0464 76.8098 266° West  Level Estimated
04:22PM -33.0540 76.6741 266° West  Level Estimated
04:23PM -33.0614 76.5383 266° West  Level Estimated
04:24PM -33.0687 76.4026 266° West  Level Estimated
04:25PM -33.0759 76.2668 266° West  Level Estimated
04:25PM -33.0170 76.0936 266° West 36,000  Level Aus ATC (Calculated)
04:27PM -33.0301 75.8357 266° West  Level Estimated
04:28PM -33.0368 75.6999 267° West  Level Estimated
04:28PM -33.0109 75.6248 266° West 36,000  Level Aus ATC (Calculated)
04:29PM -33.0433 75.5641 267° West  Level Estimated
04:30PM -33.0224 75.3828 267° West  Level Estimated
04:31PM -33.0287 75.2470 267° West  Level Estimated
04:32PM -33.0348 75.1112 267° West  Level Estimated
04:33PM -33.0407 74.9753 267° West  Level Estimated
04:33PM -33.0045 74.7657 267° West 36,000  Level Aus ATC (Calculated)
04:35PM -33.0145 74.5235 267° West  Level Estimated
04:36PM -33.0199 74.3877 267° West  Level Estimated
04:37PM -33.0252 74.2519 267° West  Level Estimated
04:38PM -33.0303 74.1160 267° West  Level Estimated
04:39PM -33.0353 73.9801 267° West  Level Estimated
04:40PM -33.0402 73.8443 268° West  Level Estimated
04:41PM -33.0449 73.7084 268° West  Level Estimated
04:42PM -33.0494 73.5725 268° West  Level Estimated
04:43PM -33.0538 73.4365 268° West  Level Estimated
04:44PM -33.0581 73.3006 268° West  Level Estimated
04:45PM -33.0622 73.1646 268° West  Level Estimated
04:46PM -33.0661 73.0287 268° West  Level Estimated
04:47PM -33.0699 72.8927 268° West  Level Estimated
04:48PM -33.0736 72.7567 268° West  Level Estimated
04:49PM -33.0771 72.6207 268° West  Level Estimated
04:50PM -33.0805 72.4847 268° West  Level Estimated
04:51PM -33.0837 72.3487 268° West  Level Estimated
04:52PM -33.0868 72.2126 268° West  Level Estimated
04:53PM -33.0897 72.0766 268° West  Level Estimated
04:54PM -33.0925 71.9406 269° West  Level Estimated
04:55PM -33.0951 71.8045 269° West  Level Estimated
04:56PM -33.0976 71.6684 269° West  Level Estimated
04:57PM -33.0999 71.5324 269° West  Level Estimated
04:58PM -33.1021 71.3963 269° West  Level Estimated
04:59PM -33.1041 71.2602 269° West  Level Estimated
05:00PM -33.1060 71.1241 269° West  Level Estimated
05:01PM -33.1077 70.9880 269° West  Level Estimated
05:02PM -33.1093 70.8519 269° West  Level Estimated
05:03PM -33.1108 70.7158 269° West  Level Estimated
05:04PM -33.1121 70.5797 269° West  Level Estimated
05:05PM -33.1132 70.4436 269° West  Level Estimated
05:06PM -33.1142 70.3074 269° West  Level Estimated
05:07PM -33.1151 70.1713 270° West  Level Estimated
05:08PM -33.1158 70.0352 270° West  Level Estimated
05:09PM -33.1163 69.8991 270° West  Level Estimated
05:10PM -33.1167 69.7629 270° West  Level Estimated
05:11PM -33.1170 69.6268 270° West  Level Estimated
05:12PM -33.1171 69.4907 270° West  Level Estimated
05:13PM -33.1171 69.3546 270° West  Level Estimated
05:14PM -33.1169 69.2184 270° West  Level Estimated
05:15PM -33.1166 69.0823 270° West  Level Estimated
05:16PM -33.1161 68.9462 270° West  Level Estimated
05:17PM -33.1155 68.8101 270° West  Level Estimated
05:18PM -33.1147 68.6739 270° West  Level Estimated
05:19PM -33.1138 68.5378 270° West  Level Estimated
05:20PM -33.1127 68.4017 271° West  Level Estimated
05:21PM -33.1115 68.2656 271° West  Level Estimated
05:22PM -33.1101 68.1295 271° West  Level Estimated
05:23PM -33.1086 67.9934 271° West  Level Estimated
05:24PM -33.1069 67.8573 271° West  Level Estimated
05:25PM -33.1051 67.7212 271° West  Level Estimated
05:26PM -33.1031 67.5851 271° West  Level Estimated
05:27PM -33.1010 67.4490 271° West  Level Estimated
05:28PM -33.0988 67.3129 271° West  Level Estimated
05:29PM -33.0964 67.1769 271° West  Level Estimated
05:30PM -33.0938 67.0408 271° West  Level Estimated
05:31PM -33.0911 66.9047 271° West  Level Estimated
05:32PM -33.0883 66.7687 271° West  Level Estimated
05:33PM -33.0853 66.6327 271° West  Level Estimated
05:34PM -33.0822 66.4967 272° West  Level Estimated
05:35PM -33.0789 66.3606 272° West  Level Estimated
05:36PM -33.0754 66.2246 272° West  Level Estimated
05:37PM -33.0718 66.0886 272° West  Level Estimated
05:38PM -33.0681 65.9527 272° West  Level Estimated
05:39PM -33.0642 65.8167 272° West  Level Estimated
05:40PM -33.0602 65.6807 272° West  Level Estimated
05:41PM -33.0560 65.5448 272° West  Level Estimated
05:42PM -33.0517 65.4088 272° West  Level Estimated
05:43PM -33.0472 65.2729 272° West  Level Estimated
05:44PM -33.0426 65.1370 272° West  Level Estimated
05:45PM -33.0379 65.0011 272° West  Level Estimated
05:46PM -33.0330 64.8652 272° West  Level Estimated
05:47PM -33.0279 64.7294 273° West  Level Estimated
05:48PM -33.0227 64.5935 273° West  Level Estimated
05:49PM -33.0173 64.4577 273° West  Level Estimated
05:50PM -33.0118 64.3219 273° West  Level Estimated
05:51PM -33.0062 64.1861 273° West  Level Estimated
05:52PM -33.0004 64.0503 273° West  Level Estimated
05:53PM -32.9945 63.9146 273° West  Level Estimated
05:54PM -32.9884 63.7788 273° West  Level Estimated
05:55PM -32.9821 63.6431 273° West  Level Estimated
05:56PM -32.9757 63.5074 273° West  Level Estimated
05:57PM -32.9692 63.3717 273° West  Level Estimated
05:58PM -32.9625 63.2361 273° West  Level Estimated
05:59PM -32.9557 63.1004 273° West  Level Estimated
06:00PM -32.9487 62.9648 273° West  Level Estimated
06:01PM -32.9416 62.8292 274° West  Level Estimated
06:02PM -32.9344 62.6936 274° West  Level Estimated
06:03PM -32.9270 62.5581 274° West  Level Estimated
06:04PM -32.9194 62.4225 274° West  Level Estimated
06:05PM -32.9117 62.2870 274° West  Level Estimated
06:06PM -32.9039 62.1516 274° West  Level Estimated
06:07PM -32.8959 62.0161 274° West  Level Estimated
06:08PM -32.8877 61.8806 274° West  Level Estimated
06:09PM -32.8795 61.7452 274° West  Level Estimated
06:10PM -32.8710 61.6099 274° West  Level Estimated
06:11PM -32.8624 61.4745 274° West  Level Estimated
06:12PM -32.8537 61.3392 274° West  Level Estimated
06:13PM -32.8449 61.2039 274° West  Level Estimated
06:14PM -32.8358 61.0686 274° West  Level Estimated
06:15PM -32.8267 60.9333 275° West  Level Estimated
06:16PM -32.8174 60.7981 275° West  Level Estimated
06:17PM -32.8079 60.6629 275° West  Level Estimated
06:18PM -32.7984 60.5278 275° West  Level Estimated
06:19PM -32.7886 60.3926 275° West  Level Estimated
06:20PM -32.7787 60.2575 275° West  Level Estimated
06:21PM -32.7687 60.1224 275° West  Level Estimated
06:22PM -32.7585 59.9874 275° West  Level Estimated
06:23PM -32.7482 59.8524 275° West  Level Estimated
06:24PM -32.7378 59.7174 275° West  Level Estimated
06:25PM -32.7271 59.5825 275° West  Level Estimated
06:26PM -32.7164 59.4475 275° West  Level Estimated
06:27PM -32.7055 59.3126 275° West  Level Estimated
06:28PM -32.6945 59.1778 276° West  Level Estimated
06:29PM -32.6833 59.0430 276° West  Level Estimated
06:30PM -32.6719 58.9082 276° West  Level Estimated
06:31PM -32.6605 58.7734 276° West  Level Estimated
06:32PM -32.6488 58.6387 276° West  Level Estimated
06:33PM -32.6371 58.5040 276° West  Level Estimated
06:34PM -32.6252 58.3694 276° West  Level Estimated
06:35PM -32.6131 58.2348 276° West  Level Estimated
06:36PM -32.6009 58.1002 276° West  Level Estimated
06:37PM -32.5886 57.9657 276° West  Level Estimated
06:38PM -32.5761 57.8312 276° West  Level Estimated
06:39PM -32.5635 57.6967 276° West  Level Estimated
06:40PM -32.5507 57.5623 276° West  Level Estimated
06:41PM -32.5378 57.4279 276° West  Level Estimated
06:42PM -32.5248 57.2936 277° West  Level Estimated
06:43PM -32.5116 57.1593 277° West  Level Estimated
06:44PM -32.4982 57.0250 277° West  Level Estimated
06:45PM -32.4847 56.8908 277° West  Level Estimated
06:46PM -32.4711 56.7566 277° West  Level Estimated
06:47PM -32.4574 56.6224 277° West  Level Estimated
06:48PM -32.4435 56.4883 277° West  Level Estimated
06:49PM -32.4294 56.3543 277° West  Level Estimated
06:50PM -32.4152 56.2203 277° West  Level Estimated
06:51PM -32.4009 56.0863 277° West  Level Estimated
06:52PM -32.3864 55.9524 277° West  Level Estimated
06:53PM -32.3718 55.8185 277° West  Level Estimated
06:54PM -32.3570 55.6846 277° West  Level Estimated
06:55PM -32.3421 55.5508 277° West  Level Estimated
06:56PM -32.3271 55.4170 278° West  Level Estimated
06:57PM -32.3119 55.2833 278° West  Level Estimated
06:58PM -32.2966 55.1497 278° West  Level Estimated
06:59PM -32.2811 55.0160 278° West  Level Estimated
07:00PM -32.2655 54.8825 278° West  Level Estimated
07:01PM -32.2498 54.7489 278° West  Level Estimated
07:02PM -32.2339 54.6154 278° West  Level Estimated
07:03PM -32.2179 54.4820 278° West  Level Estimated
07:04PM -32.2017 54.3486 278° West  Level Estimated
07:05PM -32.1854 54.2152 278° West  Level Estimated
07:06PM -32.1690 54.0820 278° West  Level Estimated
07:07PM -32.1524 53.9487 278° West  Level Estimated
07:08PM -32.1357 53.8155 278° West  Level Estimated
07:09PM -32.1188 53.6824 278° West  Level Estimated
07:10PM -32.1018 53.5493 279° West  Level Estimated
07:11PM -32.0847 53.4162 279° West  Level Estimated
07:12PM -32.0674 53.2832 279° West  Level Estimated
07:13PM -32.0500 53.1502 279° West  Level Estimated
07:14PM -32.0324 53.0173 279° West  Level Estimated
07:15PM -32.0147 52.8845 279° West  Level Estimated
07:16PM -31.9969 52.7517 279° West  Level Estimated
07:17PM -31.9789 52.6189 279° West  Level Estimated
07:18PM -31.9608 52.4863 279° West  Level Estimated
07:19PM -31.9426 52.3536 279° West  Level Estimated
07:20PM -31.9242 52.2210 279° West  Level Estimated
07:21PM -31.9056 52.0885 279° West  Level Estimated
07:22PM -31.8870 51.9560 279° West  Level Estimated
07:23PM -31.8682 51.8236 279° West  Level Estimated
07:24PM -31.8493 51.6912 280° West  Level Estimated
07:25PM -31.8302 51.5589 280° West  Level Estimated
07:26PM -31.8110 51.4266 280° West  Level Estimated
07:27PM -31.7916 51.2944 280° West  Level Estimated
07:28PM -31.7721 51.1623 280° West  Level Estimated
07:29PM -31.7525 51.0302 280° West  Level Estimated
07:30PM -31.7328 50.8981 280° West  Level Estimated
07:31PM -31.7129 50.7662 280° West  Level Estimated
07:32PM -31.6928 50.6342 280° West  Level Estimated
07:33PM -31.6727 50.5023 280° West  Level Estimated
07:34PM -31.6524 50.3705 280° West  Level Estimated
07:35PM -31.6319 50.2388 280° West  Level Estimated
07:36PM -31.6114 50.1071 280° West  Level Estimated
07:37PM -31.5907 49.9754 280° West  Level Estimated
07:38PM -31.5698 49.8439 280° West  Level Estimated
07:39PM -31.5488 49.7123 281° West  Level Estimated
07:40PM -31.5277 49.5809 281° West  Level Estimated
07:41PM -31.5065 49.4495 281° West  Level Estimated
07:42PM -31.4851 49.3181 281° West  Level Estimated
07:43PM -31.4636 49.1869 281° West  Level Estimated
07:44PM -31.4419 49.0556 281° West  Level Estimated
07:45PM -31.4202 48.9245 281° West  Level Estimated
07:46PM -31.3983 48.7934 281° West  Level Estimated
07:47PM -31.3762 48.6623 281° West  Level Estimated
07:48PM -31.3540 48.5314 281° West  Level Estimated
07:49PM -31.3317 48.4004 281° West  Level Estimated
07:50PM -31.3093 48.2696 281° West  Level Estimated
07:51PM -31.2867 48.1388 281° West  Level Estimated
07:52PM -31.2640 48.0081 281° West  Level Estimated
07:53PM -31.2411 47.8774 282° West  Level Estimated
07:54PM -31.2182 47.7468 282° West  Level Estimated
07:55PM -31.1950 47.6163 282° West  Level Estimated
07:56PM -31.1718 47.4858 282° West  Level Estimated
07:57PM -31.1484 47.3554 282° West  Level Estimated
07:58PM -31.1249 47.2251 282° West  Level Estimated
07:59PM -31.1013 47.0948 282° West  Level Estimated
08:00PM -31.0776 46.9646 282° West  Level Estimated
08:01PM -31.0537 46.8344 282° West  Level Estimated
08:02PM -31.0296 46.7043 282° West  Level Estimated
08:03PM -31.0055 46.5743 282° West  Level Estimated
08:04PM -30.9812 46.4444 282° West  Level Estimated
08:05PM -30.9568 46.3145 282° West  Level Estimated
08:06PM -30.9322 46.1846 282° West  Level Estimated
08:07PM -30.9067 46.0506 282° West  Level Estimated
08:08PM -30.8811 45.9165 283° West  Level Estimated
08:09PM -30.8553 45.7826 283° West  Level Estimated
08:10PM -30.8294 45.6487 283° West  Level Estimated
08:11PM -30.8033 45.5149 283° West  Level Estimated
08:12PM -30.7771 45.3812 283° West  Level Estimated
08:13PM -30.7508 45.2476 283° West  Level Estimated
08:14PM -30.7243 45.1140 283° West  Level Estimated
08:15PM -30.6977 44.9805 283° West  Level Estimated
08:16PM -30.6710 44.8471 283° West  Level Estimated
08:17PM -30.6441 44.7137 283° West  Level Estimated
08:18PM -30.6171 44.5804 283° West  Level Estimated
08:19PM -30.5900 44.4472 283° West  Level Estimated
08:20PM -30.5627 44.3141 283° West  Level Estimated
08:21PM -30.5353 44.1810 283° West  Level Estimated
08:22PM -30.5077 44.0480 283° West  Level Estimated
08:23PM -30.4800 43.9151 284° West  Level Estimated
08:24PM -30.4522 43.7823 284° West  Level Estimated
08:25PM -30.4242 43.6496 284° West  Level Estimated
08:26PM -30.3962 43.5169 284° West  Level Estimated
08:27PM -30.3679 43.3843 284° West  Level Estimated
08:28PM -30.3396 43.2518 284° West  Level Estimated
08:29PM -30.3111 43.1193 284° West  Level Estimated
08:30PM -30.2825 42.9869 284° West  Level Estimated
08:31PM -30.2537 42.8546 284° West  Level Estimated
08:32PM -30.2248 42.7224 284° West  Level Estimated
08:33PM -30.1958 42.5903 284° West  Level Estimated
08:34PM -30.1666 42.4582 284° West  Level Estimated
08:35PM -30.1374 42.3262 284° West  Level Estimated
08:36PM -30.1079 42.1943 284° West  Level Estimated
08:37PM -30.0784 42.0625 284° West  Level Estimated
08:38PM -30.0487 41.9308 285° West  Level Estimated
08:39PM -30.0189 41.7991 285° West  Level Estimated
08:40PM -29.9889 41.6675 285° West  Level Estimated
08:41PM -29.9589 41.5360 285° West  Level Estimated
08:42PM -29.9286 41.4046 285° West  Level Estimated
08:43PM -29.8983 41.2732 285° West  Level Estimated
08:44PM -29.8678 41.1419 285° West  Level Estimated
08:45PM -29.8372 41.0108 285° West  Level Estimated
08:46PM -29.8065 40.8797 285° West  Level Estimated
08:47PM -29.7757 40.7486 285° West  Level Estimated
08:48PM -29.7447 40.6177 285° West  Level Estimated
08:49PM -29.7136 40.4868 285° West  Level Estimated
08:50PM -29.6823 40.3560 285° West  Level Estimated
08:51PM -29.6509 40.2253 285° West  Level Estimated
08:52PM -29.6194 40.0947 285° West  Level Estimated
08:53PM -29.5878 39.9642 286° West  Level Estimated
08:54PM -29.5561 39.8337 286° West  Level Estimated
08:55PM -29.5242 39.7033 286° West  Level Estimated
08:56PM -29.4922 39.5731 286° West  Level Estimated
08:57PM -29.4600 39.4428 286° West  Level Estimated
08:58PM -29.4278 39.3127 286° West  Level Estimated
08:59PM -29.3954 39.1827 286° West  Level Estimated
09:00PM -29.3629 39.0527 286° West  Level Estimated
09:01PM -29.3302 38.9228 286° West  Level Estimated
09:02PM -29.2975 38.7930 286° West  Level Estimated
09:03PM -29.2646 38.6633 286° West  Level Estimated
09:04PM -29.2316 38.5337 286° West  Level Estimated
09:05PM -29.1984 38.4042 286° West  Level Estimated
09:06PM -29.1651 38.2747 286° West  Level Estimated
09:07PM -29.1318 38.1453 286° West  Level Estimated
09:08PM -29.0982 38.0160 286° West  Level Estimated
09:09PM -29.0646 37.8868 287° West  Level Estimated
09:10PM -29.0308 37.7577 287° West  Level Estimated
09:11PM -28.9970 37.6287 287° West  Level Estimated
09:11PM -28.7080 36.0330 287° West 391 450 38,000  Level FlightAware
09:12PM -28.9629 37.4997 287° West  Level Estimated
09:12PM -28.6870 35.9360 284° West 391 450 38,000  Level FlightAware
09:12PM -28.6720 35.8680 284° West 391 450 38,000  Level FlightAware
09:13PM -28.6530 35.7830 284° West 391 450 38,000  Level FlightAware
09:14PM -28.6270 35.6810 286° West 393 452 38,000  Level FlightAware
09:14PM -28.6040 35.5840 285° West 394 453 38,000  Level FlightAware
09:15PM -28.5790 35.4720 284° West 395 455 38,000  Level FlightAware
09:17PM -28.5410 35.3140 285° West 393 452 38,000  Level FlightAware
09:18PM -28.5170 35.2130 285° West 396 456 38,000  Level FlightAware
09:19PM -28.4910 35.0830 283° West 399 459 38,000  Level FlightAware
09:20PM -28.4560 34.9010 282° West 396 456 38,000  Level FlightAware
09:21PM -28.4410 34.8240 282° West 395 455 38,000  Level FlightAware
09:21PM -28.4230 34.7320 283° West 395 455 38,000  Level FlightAware
09:22PM -28.4070 34.6490 282° West 395 455 38,000  Level FlightAware
09:23PM -28.3930 34.5810 283° West 396 456 38,000  Level FlightAware
09:24PM -28.3740 34.4810 282° West 396 456 38,000  Level FlightAware
09:24PM -28.3610 34.4110 282° West 396 456 38,000  Level FlightAware
09:25PM -28.3480 34.3420 282° West 396 456 38,000  Level FlightAware
09:26PM -28.3210 34.2190 284° West 395 455 38,000  Level FlightAware
09:26PM -28.3050 34.1410 283° West 397 457 38,000  Level FlightAware
09:27PM -28.2860 34.0460 283° West 394 453 38,000  Level FlightAware
09:28PM -28.2690 33.9650 283° West 394 453 38,000  Level FlightAware
09:28PM -28.2530 33.8840 283° West 393 452 38,000  Level FlightAware
09:29PM -28.2340 33.7910 283° West 393 452 38,000  Level FlightAware
09:30PM -28.2180 33.7150 283° West 392 451 38,000  Level FlightAware
09:30PM -28.2040 33.6470 283° West 390 449 38,000  Level FlightAware
09:31PM -28.1850 33.5560 283° West 390 449 38,000  Level FlightAware
09:32PM -28.1690 33.4750 283° West 391 450 38,000  Level FlightAware
09:33PM -28.1470 33.3710 283° West 389 448 38,000  Level FlightAware
09:33PM -28.1330 33.3040 283° West 390 449 38,000  Level FlightAware
09:34PM -28.1130 33.2100 284° West 390 449 38,000  Level FlightAware
09:35PM -28.0970 33.1310 283° West 389 448 38,000  Level FlightAware
09:35PM -28.0800 33.0510 284° West 390 449 38,000  Level FlightAware
09:36PM -28.0620 32.9640 283° West 389 448 38,000  Level FlightAware
09:37PM -28.0430 32.8760 284° West 388 447 38,000  Level FlightAware
09:38PM -28.0260 32.7970 284° West 388 447 38,000  Level FlightAware
09:38PM -28.0100 32.7180 283° West 389 448 38,000  Level FlightAware
09:39PM -27.9920 32.6350 284° West 392 451 38,000  Level FlightAware
09:40PM -27.9660 32.5140 284° West 394 453 38,000  Level FlightAware
09:41PM -27.9480 32.4320 284° West 394 453 38,000  Level FlightAware
09:41PM -27.9360 32.3760 284° West 394 453 38,000  Level FlightAware
09:42PM -27.9060 32.2360 284° West 394 453 38,000  Level FlightAware
09:43PM -27.8820 32.1280 284° West 396 456 38,000  Level FlightAware
09:44PM -27.8650 32.0500 284° West 396 456 38,000  Level FlightAware
09:45PM -27.8430 31.9520 284° West 395 455 38,000  Level FlightAware
09:45PM -27.8270 31.8760 283° West 395 455 38,000  Level FlightAware
09:46PM -27.8090 31.7940 284° West 394 453 38,000  Level FlightAware
09:47PM -27.7810 31.7070 290° West 389 448 38,000  Level FlightAware
09:47PM -27.7480 31.6370 298° West 383 441 38,000  Level FlightAware
09:48PM -27.7110 31.5690 302° West 382 440 38,000  Level FlightAware
09:49PM -27.6680 31.4900 302° West 383 441 38,000  Level FlightAware
09:49PM -27.6320 31.4240 302° West 383 441 38,000  Level FlightAware
09:50PM -27.5980 31.3630 302° West 382 440 38,000  Level FlightAware
09:51PM -27.5520 31.2780 301° West 382 440 38,000  Level FlightAware
09:52PM -27.5150 31.2110 302° West 381 438 38,000  Level FlightAware
09:52PM -27.4740 31.1360 302° West 383 441 38,000  Level FlightAware
09:53PM -27.4360 31.0670 302° West 383 441 38,000  Level FlightAware
09:54PM -27.3940 30.9920 302° West 385 443 38,000  Level FlightAware
09:54PM -27.3570 30.9230 301° West 384 442 38,000  Level FlightAware
09:55PM -27.3200 30.8570 302° West 383 441 38,000  Level FlightAware
09:56PM -27.2800 30.7850 302° West 382 440 38,000  Level FlightAware
09:56PM -27.2400 30.7130 302° West 382 440 38,000  Level FlightAware
09:57PM -27.2080 30.6550 302° West 380 437 38,000  Level FlightAware
09:58PM -27.1720 30.5900 302° West 379 436 38,000  Level FlightAware
09:59PM -27.1360 30.5250 302° West 379 436 38,000  Level FlightAware
09:59PM -27.0900 30.4430 302° West 376 433 38,000  Level FlightAware
10:00PM -27.0590 30.3870 302° West 377 434 38,000  Level FlightAware
10:01PM -27.0160 30.3110 302° West 377 434 38,000  Level FlightAware
10:01PM -26.9790 30.2440 302° West 372 428 38,000  Level FlightAware
10:02PM -26.9380 30.1720 303° West 368 423 38,000  Level FlightAware
10:03PM -26.9000 30.1040 302° West 365 420 38,000  Level FlightAware
10:03PM -26.8600 30.0340 303° West 366 421 38,000  Level FlightAware
10:04PM -26.8220 29.9650 302° West 366 421 38,000  Level FlightAware
10:05PM -26.7850 29.9000 303° West 364 419 38,000 -720 Level FlightAware
10:06PM -26.7490 29.8370 303° West 367 422 37,100 -1,800 Descending FlightAware
10:06PM -26.7090 29.7660 302° West 362 417 35,500 -2,160 Descending FlightAware
10:07PM -26.6740 29.7030 302° West 356 410 34,100 -2,100 Descending FlightAware
10:08PM -26.6350 29.6350 303° West 352 405 32,600 -2,160 Descending FlightAware
10:08PM -26.5980 29.5700 302° West 353 406 31,100 -2,100 Descending FlightAware
10:09PM -26.5640 29.5110 303° West 355 409 29,800 -1,980 Descending FlightAware
10:10PM -26.5240 29.4410 303° West 357 411 28,300 -2,100 Descending FlightAware
10:10PM -26.4890 29.3790 302° West 358 412 26,900 -2,100 Descending FlightAware
10:11PM -26.4490 29.3100 303° West 357 411 25,400 -2,100 Descending FlightAware
10:12PM -26.4130 29.2470 303° West 354 407 24,000 -2,100 Descending FlightAware
10:13PM -26.3740 29.1780 302° West 353 406 22,500 -2,160 Descending FlightAware
10:13PM -26.3370 29.1150 303° West 353 406 21,000 -1,980 Descending FlightAware
10:14PM -26.3050 29.0580 302° West 351 404 19,900 -1,800 Descending FlightAware
10:15PM -26.2630 28.9870 303° West 347 399 18,500 -1,560 Descending FlightAware
10:15PM -26.2370 28.9250 295° West 340 391 17,700 -1,740 Descending FlightAware
10:16PM -26.2160 28.8530 288° West 346 398 16,200 -1,740 Descending FlightAware
10:17PM -26.1940 28.7790 288° West 333 383 15,300 -1,380 Descending FlightAware
10:17PM -26.1680 28.7190 296° West 345 397 14,300 -1,440 Descending FlightAware
10:18PM -26.1270 28.6660 311° West 335 386 13,400 -1,500 Descending FlightAware
10:19PM -26.0890 28.6020 303° West 334 384 12,200 -2,220 Descending FlightAware
10:20PM -26.0580 28.5400 299° West 357 411 10,300 -2,340 Descending FlightAware
10:20PM -26.0340 28.4920 299° West 325 374 9,500 -1,380 Descending FlightAware
10:20PM -26.0230 28.4720 301° West 304 350 9,300 -1,380 Descending FlightAware
10:21PM -26.0060 28.4400 301° West 279 321 8,600 -1,560 Descending FlightAware
10:21PM -25.9870 28.4060 302° West 267 307 7,900 -840 Descending FlightAware
10:22PM -25.9670 28.3730 304° West 242 278 7,800 -120 Descending FlightAware
10:22PM -25.9560 28.3450 294° West 210 242 7,800  Level FlightAware
10:23PM -25.9610 28.3150 259° West 203 234 7,800  Level FlightAware
10:23PM -25.9670 28.2990 247° West 186 214 7,800  Level FlightAware
10:23PM -25.9810 28.2860 220° Southwest 174 200 7,800 -360 Level FlightAware
10:24PM -26.0020 28.2790 197° South 173 199 7,500 -780 Descending FlightAware
10:24PM -26.0230 28.2720 197° South 163 188 7,100 -900 Descending FlightAware
10:25PM -26.0430 28.2660 195° South 142 163 6,700 -840 Descending FlightAware
10:25PM -26.0610 28.2610 194° South 129 148 6,300 -720 Descending FlightAware
10:26PM -26.0730 28.2570 197° South 132 152 6,100 -660 Descending FlightAware
10:26PM -26.0920 28.2510 196° South 131 151 5,700 -720 Descending FlightAware
10:27PM -26.1080 28.2460 196° South 134 154 5,400 -480 Descending FlightAware
10:27PM -26.1220 28.2420 194° South 111 128 5,300 -120 Descending FlightAware
10:27PM -26.1300 28.2390 199° South 41 47 5,300  Level FlightAware
10:28PM -26.1320 28.2380 204° Southwest 8 9 5,300  Level FlightAware
10:28PM -26.1310 28.2370 318° Northwest 7 8 5,300  Level FlightAware
10:29PM -26.1300 28.2380 42° Northeast 14 16 5,300  Level FlightAware
10:30PM -26.1280 28.2370 336° Northwest 11 13 5,300  Level FlightAware
10:30PM -26.1280 28.2360 270° West 9 10 5,300  Level FlightAware
10:31PM -26.1290 28.2360 180° South 4 5 5,300  Level FlightAware
10:33PM -26.1392 28.2460 139° Southeast  Level Estimated
10:34PM -26.1392 28.2460 North  Level Estimated
10:35PM -26.1392 28.2460 North  Level Estimated
10:36PM -26.1392 28.2460 North  Level Estimated
10:37PM -26.1392 28.2460 North  Level Estimated
10:38PM -26.1392 28.2460 North  Level Estimated
10:39PM -26.1392 28.2460 North  Level Estimated
10:40PM -26.1392 28.2460 North  Level Estimated